Time;durP1;ratioP1;P1;durP2;ratioP2;P2;SDS_P1;SDS_P2;PMS_P1;PMS_P2;Temp;Humidity;BMP_temperature;BMP_pressure;BME280_temperature;BME280_humidity;BME280_pressure;Samples;Min_cycle;Max_cycle;Signal;HPM_P1;HPM_P2
2024/01/31 00:00:19;;;;;;;;;;;7.30;99.90;;;;;;5070382;28;19912;-62
2024/01/31 00:02:45;;;;;;;;;;;7.30;99.90;;;;;;5086994;28;19912;-62
2024/01/31 00:05:13;;;;;;;;;;;7.30;99.90;;;;;;5089267;28;19915;-62
2024/01/31 00:07:39;;;;;;;;;;;7.30;99.90;;;;;;5092615;28;19969;-62
2024/01/31 00:10:05;;;;;;;;;;;7.30;99.90;;;;;;5075912;28;19912;-62
2024/01/31 00:12:30;;;;;;;;;;;7.20;99.90;;;;;;5107592;27;19912;-62
2024/01/31 00:14:56;;;;;;;;;;;7.30;99.90;;;;;;5074712;28;19955;-62
2024/01/31 00:17:21;;;;;;;;;;;7.20;99.90;;;;;;5119119;27;20311;-62
2024/01/31 00:19:47;;;;;;;;;;;7.20;99.90;;;;;;5086671;28;19918;-62
2024/01/31 00:22:12;;;;;;;;;;;7.20;99.90;;;;;;5084636;28;19912;-62
2024/01/31 00:24:38;;;;;;;;;;;7.20;99.90;;;;;;5086624;28;19915;-62
2024/01/31 00:30:08;;;;;;;;;;;7.20;99.90;;;;;;5103040;28;19957;-62
2024/01/31 00:32:33;;;;;;;;;;;7.20;99.90;;;;;;5086326;28;19947;-62
2024/01/31 00:34:59;;;;;;;;;;;7.20;99.90;;;;;;5086014;28;19950;-62
2024/01/31 00:37:24;;;;;;;;;;;7.20;99.90;;;;;;5081993;28;19913;-62
2024/01/31 00:39:50;;;;;;;;;;;7.10;99.90;;;;;;5078039;28;20539;-62
2024/01/31 00:42:15;;;;;;;;;;;7.10;99.90;;;;;;5083003;28;19913;-62
2024/01/31 00:44:42;;;;;;;;;;;7.10;99.90;;;;;;5074423;28;19913;-62
2024/01/31 00:47:08;;;;;;;;;;;7.20;99.90;;;;;;5075876;28;19912;-62
2024/01/31 00:49:34;;;;;;;;;;;7.10;99.90;;;;;;5085623;28;19912;-62
2024/01/31 00:52:00;;;;;;;;;;;7.10;99.90;;;;;;5084279;28;19969;-62
2024/01/31 00:54:26;;;;;;;;;;;7.10;99.90;;;;;;5078581;28;20060;-62
2024/01/31 00:56:52;;;;;;;;;;;7.10;99.90;;;;;;5086096;28;19919;-62
2024/01/31 00:59:18;;;;;;;;;;;7.10;99.90;;;;;;5085792;28;19912;-62
2024/01/31 01:01:43;;;;;;;;;;;7.10;99.90;;;;;;5084587;28;19911;-62
2024/01/31 01:04:09;;;;;;;;;;;7.10;99.90;;;;;;5066947;28;19912;-62
2024/01/31 01:06:35;;;;;;;;;;;7.10;99.90;;;;;;5079878;28;20297;-62
2024/01/31 01:09:00;;;;;;;;;;;7.10;99.90;;;;;;5084497;28;19970;-62
2024/01/31 01:11:28;;;;;;;;;;;7.10;99.90;;;;;;5078128;28;19916;-62
2024/01/31 01:13:54;;;;;;;;;;;7.00;99.90;;;;;;5094390;28;19912;-62
2024/01/31 01:16:19;;;;;;;;;;;7.10;99.90;;;;;;5069074;28;20428;-62
2024/01/31 01:18:45;;;;;;;;;;;7.10;99.90;;;;;;5086086;28;19912;-62
2024/01/31 01:21:10;;;;;;;;;;;7.00;99.90;;;;;;5084650;28;19995;-62
2024/01/31 01:23:36;;;;;;;;;;;7.00;99.90;;;;;;5085445;28;19912;-62
2024/01/31 01:26:02;;;;;;;;;;;7.00;99.90;;;;;;5076776;28;20426;-62
2024/01/31 01:28:29;;;;;;;;;;;7.00;99.90;;;;;;5079412;28;20234;-62
2024/01/31 01:30:54;;;;;;;;;;;7.00;99.90;;;;;;5076820;28;19922;-62
2024/01/31 01:33:20;;;;;;;;;;;7.00;99.90;;;;;;5085408;28;20004;-62
2024/01/31 01:35:45;;;;;;;;;;;7.00;99.90;;;;;;5085517;28;19912;-62
2024/01/31 01:38:11;;;;;;;;;;;7.00;99.90;;;;;;5085400;28;19912;-62
2024/01/31 01:40:42;;;;;;;;;;;7.00;99.90;;;;;;5085579;28;20510;-62
2024/01/31 01:43:17;;;;;;;;;;;7.00;99.90;;;;;;5083574;28;19942;-62
2024/01/31 01:45:43;;;;;;;;;;;7.00;99.90;;;;;;5084583;28;19913;-62
2024/01/31 01:48:08;;;;;;;;;;;7.00;99.90;;;;;;5076712;28;20384;-62
2024/01/31 01:50:34;;;;;;;;;;;7.00;99.90;;;;;;5098673;28;19908;-62
2024/01/31 01:53:00;;;;;;;;;;;7.00;99.90;;;;;;5088655;28;19923;-62
2024/01/31 01:55:25;;;;;;;;;;;7.00;99.90;;;;;;5086992;28;19953;-62
2024/01/31 01:57:51;;;;;;;;;;;6.90;99.90;;;;;;5077231;28;19912;-62
2024/01/31 02:00:17;;;;;;;;;;;6.90;99.90;;;;;;5084657;28;20414;-62
2024/01/31 02:02:43;;;;;;;;;;;6.90;99.90;;;;;;5084552;28;19916;-62
2024/01/31 02:05:08;;;;;;;;;;;7.00;99.90;;;;;;5075800;28;20694;-62
2024/01/31 02:07:34;;;;;;;;;;;6.90;99.90;;;;;;5082413;28;19981;-62
2024/01/31 02:10:00;;;;;;;;;;;6.90;99.90;;;;;;5075227;28;20002;-62
2024/01/31 02:12:25;;;;;;;;;;;6.90;99.90;;;;;;5084514;28;19912;-62
2024/01/31 02:14:52;;;;;;;;;;;6.90;99.90;;;;;;5108981;27;19934;-62
2024/01/31 02:17:18;;;;;;;;;;;6.90;99.90;;;;;;5084672;28;19912;-62
2024/01/31 02:19:43;;;;;;;;;;;6.90;99.90;;;;;;5070107;28;19955;-62
2024/01/31 02:22:27;;;;;;;;;;;6.90;99.90;;;;;;5081232;28;20487;-62
2024/01/31 02:24:52;;;;;;;;;;;6.90;99.90;;;;;;5083576;28;19952;-62
2024/01/31 02:27:18;;;;;;;;;;;6.90;99.90;;;;;;5076547;28;19940;-62
2024/01/31 02:29:43;;;;;;;;;;;6.90;99.90;;;;;;5093367;28;19912;-62
2024/01/31 02:32:09;;;;;;;;;;;6.90;99.90;;;;;;5081552;28;20525;-62
2024/01/31 02:34:34;;;;;;;;;;;6.90;99.90;;;;;;5085074;28;19912;-62
2024/01/31 02:37:00;;;;;;;;;;;6.90;99.90;;;;;;5084424;28;19908;-62
2024/01/31 02:39:25;;;;;;;;;;;6.90;99.90;;;;;;5078160;28;19912;-62
2024/01/31 02:41:52;;;;;;;;;;;6.80;99.90;;;;;;5087753;28;19912;-62
2024/01/31 02:44:20;;;;;;;;;;;6.90;99.90;;;;;;5076668;28;19912;-62
2024/01/31 02:46:46;;;;;;;;;;;6.80;99.90;;;;;;5075126;28;19995;-62
2024/01/31 02:49:11;;;;;;;;;;;6.90;99.90;;;;;;5087057;28;20014;-62
2024/01/31 02:51:37;;;;;;;;;;;6.80;99.90;;;;;;5087636;28;20004;-62
2024/01/31 02:54:02;;;;;;;;;;;6.90;99.90;;;;;;5080234;28;19919;-62
2024/01/31 02:56:28;;;;;;;;;;;6.80;99.90;;;;;;5088505;28;19912;-62
2024/01/31 02:58:53;;;;;;;;;;;6.80;99.90;;;;;;5088647;28;20363;-62
2024/01/31 03:01:19;;;;;;;;;;;6.80;99.90;;;;;;5084099;28;20621;-62
2024/01/31 03:03:44;;;;;;;;;;;6.80;99.90;;;;;;5076388;28;19912;-62
2024/01/31 03:06:10;;;;;;;;;;;6.80;99.90;;;;;;5086485;28;19999;-62
2024/01/31 03:08:36;;;;;;;;;;;6.80;99.90;;;;;;5079857;28;19951;-62
2024/01/31 03:11:01;;;;;;;;;;;6.80;99.90;;;;;;5087648;28;19963;-62
2024/01/31 03:13:27;;;;;;;;;;;6.80;99.90;;;;;;5116815;27;20273;-62
2024/01/31 03:15:52;;;;;;;;;;;6.80;99.90;;;;;;5083525;28;20486;-62
2024/01/31 03:18:18;;;;;;;;;;;6.80;99.90;;;;;;5119764;27;19912;-62
2024/01/31 03:20:43;;;;;;;;;;;6.80;99.90;;;;;;5119810;27;19942;-62
2024/01/31 03:23:09;;;;;;;;;;;6.80;99.90;;;;;;5086785;28;20002;-62
2024/01/31 03:25:34;;;;;;;;;;;6.80;99.90;;;;;;5076111;28;19912;-62
2024/01/31 03:28:00;;;;;;;;;;;6.70;99.90;;;;;;5084496;28;19912;-62
2024/01/31 03:30:25;;;;;;;;;;;6.70;99.90;;;;;;5078769;28;19908;-62
2024/01/31 03:32:51;;;;;;;;;;;6.80;99.90;;;;;;5079492;28;19959;-62
2024/01/31 03:35:16;;;;;;;;;;;6.80;99.90;;;;;;5094785;28;19916;-62
2024/01/31 03:37:42;;;;;;;;;;;6.70;99.90;;;;;;5081205;28;19912;-62
2024/01/31 03:40:08;;;;;;;;;;;6.70;99.90;;;;;;5085124;28;19912;-62
2024/01/31 03:42:34;;;;;;;;;;;6.70;99.90;;;;;;5106030;27;19973;-62
2024/01/31 03:45:00;;;;;;;;;;;6.70;99.90;;;;;;5084391;28;19912;-62
2024/01/31 03:47:25;;;;;;;;;;;6.70;99.90;;;;;;5095618;28;20345;-62
2024/01/31 03:49:52;;;;;;;;;;;6.70;99.90;;;;;;5088440;28;19916;-62
2024/01/31 03:52:17;;;;;;;;;;;6.70;99.90;;;;;;5083871;28;19920;-62
2024/01/31 03:54:43;;;;;;;;;;;6.70;99.90;;;;;;5083997;28;19939;-62
2024/01/31 03:57:08;;;;;;;;;;;6.70;99.90;;;;;;5078709;28;19912;-62
2024/01/31 03:59:34;;;;;;;;;;;6.70;99.90;;;;;;5073686;28;19978;-62
2024/01/31 04:01:59;;;;;;;;;;;6.70;99.90;;;;;;5071508;28;19952;-62
2024/01/31 04:04:25;;;;;;;;;;;6.70;99.90;;;;;;5087103;28;19961;-62
2024/01/31 04:06:51;;;;;;;;;;;6.70;99.90;;;;;;5113964;27;19991;-62
2024/01/31 04:09:16;;;;;;;;;;;6.60;99.90;;;;;;5098126;28;19912;-62
2024/01/31 04:11:42;;;;;;;;;;;6.70;99.90;;;;;;5094633;28;20007;-62
2024/01/31 04:14:07;;;;;;;;;;;6.60;99.90;;;;;;5092942;28;19935;-62
2024/01/31 04:16:33;;;;;;;;;;;6.60;99.90;;;;;;5090144;28;19912;-62
2024/01/31 04:18:58;;;;;;;;;;;6.60;99.90;;;;;;5089482;28;19912;-62
2024/01/31 04:21:24;;;;;;;;;;;6.60;99.90;;;;;;5086881;28;20388;-62
2024/01/31 04:23:50;;;;;;;;;;;6.60;99.90;;;;;;5114130;27;19998;-62
2024/01/31 04:26:15;;;;;;;;;;;6.60;99.90;;;;;;5083951;28;19913;-62
2024/01/31 04:28:41;;;;;;;;;;;6.60;99.90;;;;;;5087418;28;19920;-62
2024/01/31 04:31:16;;;;;;;;;;;6.60;99.90;;;;;;5085521;28;19916;-62
2024/01/31 04:33:41;;;;;;;;;;;6.60;99.90;;;;;;5079522;28;20690;-62
2024/01/31 04:36:07;;;;;;;;;;;6.60;99.90;;;;;;5082824;28;19994;-62
2024/01/31 04:38:33;;;;;;;;;;;6.60;99.90;;;;;;5089831;28;20395;-62
2024/01/31 04:40:59;;;;;;;;;;;6.60;99.90;;;;;;5085274;28;20300;-62
2024/01/31 04:43:24;;;;;;;;;;;6.60;99.90;;;;;;5093523;28;19916;-62
2024/01/31 04:45:50;;;;;;;;;;;6.60;99.90;;;;;;5085277;28;19912;-62
2024/01/31 04:48:15;;;;;;;;;;;6.60;99.90;;;;;;5077854;28;20340;-62
2024/01/31 04:50:41;;;;;;;;;;;6.60;99.90;;;;;;5086312;28;19912;-62
2024/01/31 04:53:07;;;;;;;;;;;6.50;99.90;;;;;;5084348;28;19942;-62
2024/01/31 04:55:32;;;;;;;;;;;6.50;99.90;;;;;;5081319;28;20006;-62
2024/01/31 04:57:57;;;;;;;;;;;6.50;99.90;;;;;;5082855;28;19943;-62
2024/01/31 05:00:23;;;;;;;;;;;6.50;99.90;;;;;;5085895;28;19912;-62
2024/01/31 05:02:49;;;;;;;;;;;6.50;99.90;;;;;;5078532;28;20019;-62
2024/01/31 05:05:15;;;;;;;;;;;6.50;99.90;;;;;;5076259;28;19960;-62
2024/01/31 05:07:41;;;;;;;;;;;6.50;99.90;;;;;;5081141;28;20593;-62
2024/01/31 05:10:06;;;;;;;;;;;6.50;99.90;;;;;;5085827;28;19919;-62
2024/01/31 05:12:32;;;;;;;;;;;6.50;99.90;;;;;;5085950;28;20492;-62
2024/01/31 05:14:57;;;;;;;;;;;6.50;99.90;;;;;;5086021;28;19912;-62
2024/01/31 05:17:23;;;;;;;;;;;6.50;99.90;;;;;;5085774;28;19919;-62
2024/01/31 05:19:49;;;;;;;;;;;6.50;99.90;;;;;;5077595;28;19912;-62
2024/01/31 05:22:14;;;;;;;;;;;6.50;99.90;;;;;;5079030;28;19913;-62
2024/01/31 05:24:40;;;;;;;;;;;6.50;99.90;;;;;;5091079;28;19916;-62
2024/01/31 05:27:06;;;;;;;;;;;6.50;99.90;;;;;;5083902;28;19969;-62
2024/01/31 05:29:31;;;;;;;;;;;6.50;99.90;;;;;;5086107;28;19962;-62
2024/01/31 05:31:57;;;;;;;;;;;6.50;99.90;;;;;;5083974;28;20011;-62
2024/01/31 05:34:23;;;;;;;;;;;6.50;99.90;;;;;;5085849;28;20341;-62
2024/01/31 05:36:48;;;;;;;;;;;6.50;99.90;;;;;;5085795;28;19912;-62
2024/01/31 05:39:14;;;;;;;;;;;6.40;99.90;;;;;;5077395;28;19938;-62
2024/01/31 05:41:43;;;;;;;;;;;6.40;99.90;;;;;;5082913;28;19918;-62
2024/01/31 05:44:09;;;;;;;;;;;6.40;99.90;;;;;;5089357;28;19981;-62
2024/01/31 05:46:34;;;;;;;;;;;6.40;99.90;;;;;;5100474;28;19912;-62
2024/01/31 05:49:02;;;;;;;;;;;6.40;99.90;;;;;;5085578;28;20314;-62
2024/01/31 05:51:30;;;;;;;;;;;6.40;99.90;;;;;;5077008;28;19912;-62
2024/01/31 05:53:56;;;;;;;;;;;6.40;99.90;;;;;;5084316;28;19919;-62
2024/01/31 05:56:22;;;;;;;;;;;6.40;99.90;;;;;;5085485;28;19917;-62
2024/01/31 05:58:47;;;;;;;;;;;6.40;99.90;;;;;;5085988;28;19915;-62
2024/01/31 06:01:13;;;;;;;;;;;6.40;99.90;;;;;;5085079;28;19919;-62
2024/01/31 06:03:38;;;;;;;;;;;6.40;99.90;;;;;;5084819;28;19981;-62
2024/01/31 06:06:06;;;;;;;;;;;6.40;99.90;;;;;;5074872;28;20345;-62
2024/01/31 06:08:34;;;;;;;;;;;6.40;99.90;;;;;;5085732;28;20568;-62
2024/01/31 06:11:04;;;;;;;;;;;6.40;99.90;;;;;;5085030;28;19912;-62
2024/01/31 06:13:30;;;;;;;;;;;6.40;99.90;;;;;;5081843;28;19970;-62
2024/01/31 06:15:55;;;;;;;;;;;6.40;99.90;;;;;;5093606;28;19947;-62
2024/01/31 06:18:22;;;;;;;;;;;6.30;99.90;;;;;;5088839;28;19913;-62
2024/01/31 06:20:51;;;;;;;;;;;6.40;99.90;;;;;;5088958;28;20428;-62
2024/01/31 06:23:17;;;;;;;;;;;6.30;99.90;;;;;;5080189;28;19912;-62
2024/01/31 06:25:42;;;;;;;;;;;6.40;99.90;;;;;;5089480;28;19916;-62
2024/01/31 06:28:08;;;;;;;;;;;6.30;99.90;;;;;;5074241;28;20572;-62
2024/01/31 06:30:41;;;;;;;;;;;6.30;99.90;;;;;;5088947;28;19919;-62
2024/01/31 06:33:10;;;;;;;;;;;6.30;99.90;;;;;;5089682;28;19912;-62
2024/01/31 06:35:36;;;;;;;;;;;6.30;99.90;;;;;;5100941;28;20440;-62
2024/01/31 06:38:02;;;;;;;;;;;6.30;99.90;;;;;;5075823;28;19913;-62
2024/01/31 06:40:27;;;;;;;;;;;6.30;99.90;;;;;;5080463;28;19912;-62
2024/01/31 06:42:53;;;;;;;;;;;6.30;99.90;;;;;;5080575;28;19919;-62
2024/01/31 06:45:19;;;;;;;;;;;6.30;99.90;;;;;;5085895;28;19912;-62
2024/01/31 06:47:45;;;;;;;;;;;6.30;99.90;;;;;;5075059;28;19948;-62
2024/01/31 06:50:11;;;;;;;;;;;6.30;99.90;;;;;;5078437;28;19948;-62
2024/01/31 06:52:37;;;;;;;;;;;6.30;99.90;;;;;;5081963;28;19923;-62
2024/01/31 06:55:02;;;;;;;;;;;6.30;99.90;;;;;;5080463;28;19912;-62
2024/01/31 06:57:29;;;;;;;;;;;6.30;99.90;;;;;;5096809;28;19912;-62
2024/01/31 06:59:54;;;;;;;;;;;6.30;99.90;;;;;;5088712;28;19954;-62
2024/01/31 07:02:20;;;;;;;;;;;6.30;99.90;;;;;;5079652;28;19916;-62
2024/01/31 07:04:45;;;;;;;;;;;6.30;99.90;;;;;;5088570;28;19912;-62
2024/01/31 07:07:11;;;;;;;;;;;6.30;99.90;;;;;;5088136;28;19912;-62
2024/01/31 07:09:36;;;;;;;;;;;6.30;99.90;;;;;;5115987;27;19920;-62
2024/01/31 07:12:02;;;;;;;;;;;6.30;99.90;;;;;;5084375;28;19916;-62
2024/01/31 07:14:27;;;;;;;;;;;6.20;99.90;;;;;;5080259;28;20680;-62
2024/01/31 07:16:53;;;;;;;;;;;6.20;99.90;;;;;;5088095;28;19912;-62
2024/01/31 07:19:18;;;;;;;;;;;6.20;99.90;;;;;;5120545;27;19939;-62
2024/01/31 07:21:44;;;;;;;;;;;6.20;99.90;;;;;;5087587;28;19922;-62
2024/01/31 07:24:09;;;;;;;;;;;6.20;99.90;;;;;;5120483;27;19923;-62
2024/01/31 07:26:35;;;;;;;;;;;6.20;99.90;;;;;;5083076;28;19912;-62
2024/01/31 07:29:01;;;;;;;;;;;6.20;99.90;;;;;;5084808;28;20345;-62
2024/01/31 07:31:26;;;;;;;;;;;6.20;99.90;;;;;;5070835;28;20632;-62
2024/01/31 07:33:52;;;;;;;;;;;6.20;99.90;;;;;;5113604;27;20075;-62
2024/01/31 07:36:18;;;;;;;;;;;6.20;99.90;;;;;;5078169;28;19939;-62
2024/01/31 07:38:45;;;;;;;;;;;6.20;99.90;;;;;;5087746;28;19959;-62
2024/01/31 07:41:10;;;;;;;;;;;6.20;99.90;;;;;;5076412;28;20004;-62
2024/01/31 07:43:36;;;;;;;;;;;6.20;99.90;;;;;;5076126;28;19989;-62
2024/01/31 07:46:03;;;;;;;;;;;6.20;99.90;;;;;;5084030;28;19912;-62
2024/01/31 07:48:29;;;;;;;;;;;6.20;99.90;;;;;;5087917;28;19912;-62
2024/01/31 07:50:55;;;;;;;;;;;6.20;99.90;;;;;;5086982;28;19912;-62
2024/01/31 07:53:20;;;;;;;;;;;6.20;99.90;;;;;;5080260;28;19919;-62
2024/01/31 07:55:46;;;;;;;;;;;6.20;99.90;;;;;;5087374;28;20423;-62
2024/01/31 07:58:11;;;;;;;;;;;6.20;99.90;;;;;;5085831;28;19916;-62
2024/01/31 08:00:37;;;;;;;;;;;6.20;99.90;;;;;;5080387;28;20029;-62
2024/01/31 08:03:03;;;;;;;;;;;6.20;99.90;;;;;;5086777;28;20408;-62
2024/01/31 08:05:29;;;;;;;;;;;6.20;99.90;;;;;;5091430;28;19911;-62
2024/01/31 08:07:54;;;;;;;;;;;6.20;99.90;;;;;;5095207;28;20363;-62
2024/01/31 08:10:20;;;;;;;;;;;6.20;99.90;;;;;;5082272;28;20055;-62
2024/01/31 08:12:46;;;;;;;;;;;6.20;99.90;;;;;;5081056;28;20486;-62
2024/01/31 08:15:12;;;;;;;;;;;6.20;99.90;;;;;;5067987;28;20269;-62
2024/01/31 08:17:38;;;;;;;;;;;6.20;99.90;;;;;;5087366;28;19916;-62
2024/01/31 08:20:04;;;;;;;;;;;6.20;99.90;;;;;;5086489;28;20292;-62
2024/01/31 08:22:32;;;;;;;;;;;6.20;99.90;;;;;;5082992;28;19916;-62
2024/01/31 08:24:57;;;;;;;;;;;6.20;99.90;;;;;;5088340;28;19951;-62
2024/01/31 08:27:23;;;;;;;;;;;6.20;99.90;;;;;;5086470;28;19952;-62
2024/01/31 08:29:50;;;;;;;;;;;6.20;99.90;;;;;;5095412;28;19972;-62
2024/01/31 08:32:15;;;;;;;;;;;6.20;99.90;;;;;;5087986;28;19927;-62
2024/01/31 08:34:41;;;;;;;;;;;6.20;99.90;;;;;;5097423;28;20246;-62
2024/01/31 08:37:07;;;;;;;;;;;6.20;99.90;;;;;;5096266;28;19912;-62
2024/01/31 08:39:32;;;;;;;;;;;6.20;99.90;;;;;;5098906;28;20462;-62
2024/01/31 08:41:58;;;;;;;;;;;6.20;99.90;;;;;;5090549;28;19923;-62
2024/01/31 08:44:23;;;;;;;;;;;6.20;99.90;;;;;;5094843;28;19919;-62
2024/01/31 08:46:49;;;;;;;;;;;6.20;99.90;;;;;;5094607;28;19920;-62
2024/01/31 08:49:14;;;;;;;;;;;6.20;99.90;;;;;;5094611;28;19912;-62
2024/01/31 08:51:40;;;;;;;;;;;6.20;99.90;;;;;;5085895;28;19938;-62
2024/01/31 08:54:06;;;;;;;;;;;6.20;99.90;;;;;;5087089;28;19915;-62
2024/01/31 08:56:32;;;;;;;;;;;6.20;99.90;;;;;;5099021;28;19924;-62
2024/01/31 08:58:57;;;;;;;;;;;6.20;99.90;;;;;;5106735;28;20361;-62
2024/01/31 09:01:23;;;;;;;;;;;6.20;99.90;;;;;;5105857;28;20315;-62
2024/01/31 09:03:49;;;;;;;;;;;6.20;99.90;;;;;;5098561;28;20041;-62
2024/01/31 09:06:14;;;;;;;;;;;6.20;99.90;;;;;;5086170;28;19999;-62
2024/01/31 09:08:40;;;;;;;;;;;6.20;99.90;;;;;;5086307;28;20033;-62
2024/01/31 09:11:06;;;;;;;;;;;6.20;99.90;;;;;;5102639;28;20048;-62
2024/01/31 09:13:31;;;;;;;;;;;6.20;99.90;;;;;;5086154;28;20035;-62
2024/01/31 09:15:57;;;;;;;;;;;6.20;99.90;;;;;;5085991;28;20009;-62
2024/01/31 09:18:22;;;;;;;;;;;6.20;99.90;;;;;;5097054;28;20313;-62
2024/01/31 09:20:48;;;;;;;;;;;6.20;99.90;;;;;;5091329;28;19919;-62
2024/01/31 09:23:13;;;;;;;;;;;6.20;99.90;;;;;;5092427;28;20324;-62
2024/01/31 09:25:39;;;;;;;;;;;6.20;99.90;;;;;;5094758;28;20564;-62
2024/01/31 09:28:04;;;;;;;;;;;6.20;99.90;;;;;;5088849;28;19916;-62
2024/01/31 09:30:30;;;;;;;;;;;6.20;99.90;;;;;;5089403;28;19939;-62
2024/01/31 09:32:55;;;;;;;;;;;6.20;99.90;;;;;;5090316;27;20493;-62
2024/01/31 09:35:21;;;;;;;;;;;6.30;99.90;;;;;;5085674;28;20747;-62
2024/01/31 09:37:46;;;;;;;;;;;6.20;99.90;;;;;;5100241;28;20007;-62
2024/01/31 09:40:15;;;;;;;;;;;6.20;99.90;;;;;;5105726;28;19915;-62
2024/01/31 09:42:42;;;;;;;;;;;6.20;99.90;;;;;;5106242;27;19912;-62
2024/01/31 09:45:10;;;;;;;;;;;6.30;99.90;;;;;;5088310;28;19912;-62
2024/01/31 09:47:36;;;;;;;;;;;6.20;99.90;;;;;;5095114;28;19912;-62
2024/01/31 09:50:02;;;;;;;;;;;6.20;99.90;;;;;;5090040;28;19918;-62
2024/01/31 09:52:27;;;;;;;;;;;6.30;99.90;;;;;;5095397;28;19911;-62
2024/01/31 09:54:56;;;;;;;;;;;6.30;99.90;;;;;;5094295;28;19923;-62
2024/01/31 09:57:21;;;;;;;;;;;6.30;99.90;;;;;;5099543;28;20013;-62
2024/01/31 09:59:47;;;;;;;;;;;6.30;99.90;;;;;;5095667;28;19994;-62
2024/01/31 10:02:13;;;;;;;;;;;6.30;99.90;;;;;;5107165;28;20390;-62
2024/01/31 10:04:39;;;;;;;;;;;6.30;99.90;;;;;;5105194;28;19954;-62
2024/01/31 10:07:06;;;;;;;;;;;6.30;99.90;;;;;;5098034;28;19912;-62
2024/01/31 10:09:32;;;;;;;;;;;6.30;99.90;;;;;;5089934;28;19919;-62
2024/01/31 10:11:58;;;;;;;;;;;6.30;99.90;;;;;;5089366;28;19920;-62
2024/01/31 10:14:24;;;;;;;;;;;6.30;99.90;;;;;;5106713;28;20557;-62
2024/01/31 10:16:49;;;;;;;;;;;6.30;99.90;;;;;;5101352;28;19919;-62
2024/01/31 10:19:15;;;;;;;;;;;6.30;99.90;;;;;;5099583;28;19947;-62
2024/01/31 10:21:40;;;;;;;;;;;6.30;99.90;;;;;;5102496;28;20026;-62
2024/01/31 10:24:06;;;;;;;;;;;6.40;99.90;;;;;;5090389;28;19912;-62
2024/01/31 10:26:35;;;;;;;;;;;6.40;99.90;;;;;;5095079;28;19916;-62
2024/01/31 10:29:01;;;;;;;;;;;6.40;99.90;;;;;;5093982;28;19919;-62
2024/01/31 10:31:30;;;;;;;;;;;6.40;99.90;;;;;;5100078;28;19920;-62
2024/01/31 10:33:57;;;;;;;;;;;6.40;99.90;;;;;;5109671;28;19912;-62
2024/01/31 10:36:23;;;;;;;;;;;6.40;99.90;;;;;;5106538;28;19935;-62
2024/01/31 10:38:49;;;;;;;;;;;6.50;99.90;;;;;;5089324;28;19912;-62
2024/01/31 10:41:19;;;;;;;;;;;6.50;99.90;;;;;;5098580;28;19931;-62
2024/01/31 10:43:45;;;;;;;;;;;6.50;99.90;;;;;;5101202;28;19915;-62
2024/01/31 10:46:11;;;;;;;;;;;6.50;99.90;;;;;;5092395;28;19912;-62
2024/01/31 10:48:37;;;;;;;;;;;6.50;99.90;;;;;;5105010;28;20359;-62
2024/01/31 10:51:04;;;;;;;;;;;6.50;99.90;;;;;;5105321;28;19914;-62
2024/01/31 10:53:30;;;;;;;;;;;6.60;99.90;;;;;;5088054;28;20777;-62
2024/01/31 10:55:57;;;;;;;;;;;6.60;99.90;;;;;;5096103;28;20268;-62
2024/01/31 10:58:22;;;;;;;;;;;6.60;99.90;;;;;;5097923;28;19924;-62
2024/01/31 11:00:48;;;;;;;;;;;6.60;99.90;;;;;;5087045;28;20436;-62
2024/01/31 11:03:15;;;;;;;;;;;6.60;99.90;;;;;;5087838;28;19912;-62
2024/01/31 11:05:41;;;;;;;;;;;6.60;99.90;;;;;;5092702;28;19918;-62
2024/01/31 11:08:19;;;;;;;;;;;6.70;99.90;;;;;;5091443;28;19912;-62
2024/01/31 11:10:45;;;;;;;;;;;6.70;99.90;;;;;;5103250;28;19920;-62
2024/01/31 11:13:11;;;;;;;;;;;6.70;99.90;;;;;;5103669;28;19911;-62
2024/01/31 11:15:36;;;;;;;;;;;6.70;99.90;;;;;;5088195;28;19912;-62
2024/01/31 11:18:11;;;;;;;;;;;6.70;99.90;;;;;;5088897;28;19972;-62
2024/01/31 11:20:40;;;;;;;;;;;6.70;99.90;;;;;;5086837;28;20571;-62
2024/01/31 11:23:06;;;;;;;;;;;6.70;99.90;;;;;;5095086;28;19912;-62
2024/01/31 11:25:36;;;;;;;;;;;6.80;99.90;;;;;;5101042;28;19912;-62
2024/01/31 11:28:03;;;;;;;;;;;6.80;99.90;;;;;;5092920;28;19912;-62
2024/01/31 11:30:29;;;;;;;;;;;6.80;99.90;;;;;;5091139;28;20400;-62
2024/01/31 11:32:54;;;;;;;;;;;6.80;99.90;;;;;;5100242;28;19911;-62
2024/01/31 11:35:24;;;;;;;;;;;6.80;99.90;;;;;;5099801;28;19976;-62
2024/01/31 11:37:50;;;;;;;;;;;6.80;99.90;;;;;;5093843;27;20504;-62
2024/01/31 11:40:16;;;;;;;;;;;6.80;99.90;;;;;;5087842;28;20334;-62
2024/01/31 11:42:41;;;;;;;;;;;6.80;99.90;;;;;;5112282;27;20002;-62
2024/01/31 11:45:07;;;;;;;;;;;6.80;99.90;;;;;;5137250;27;20266;-62
2024/01/31 11:47:33;;;;;;;;;;;6.80;99.90;;;;;;5096635;28;19912;-62
2024/01/31 11:50:02;;;;;;;;;;;6.80;99.90;;;;;;5095350;28;19918;-62
2024/01/31 11:52:27;;;;;;;;;;;6.90;99.90;;;;;;5098892;28;19922;-62
2024/01/31 11:54:53;;;;;;;;;;;6.90;99.90;;;;;;5089855;28;19916;-62
2024/01/31 11:57:18;;;;;;;;;;;6.80;99.90;;;;;;5087513;28;19955;-62
2024/01/31 11:59:44;;;;;;;;;;;6.80;99.90;;;;;;5101542;28;20356;-62
2024/01/31 12:02:09;;;;;;;;;;;6.80;99.90;;;;;;5097939;28;19960;-62
2024/01/31 12:04:35;;;;;;;;;;;6.90;99.90;;;;;;5096236;28;19912;-62
2024/01/31 12:07:04;;;;;;;;;;;6.90;99.90;;;;;;5092641;28;19965;-62
2024/01/31 12:09:31;;;;;;;;;;;6.90;99.90;;;;;;5094365;28;20534;-62
2024/01/31 12:11:58;;;;;;;;;;;6.90;99.90;;;;;;5086260;28;20238;-62
2024/01/31 12:14:24;;;;;;;;;;;6.90;99.90;;;;;;5106579;28;19956;-62
2024/01/31 12:16:49;;;;;;;;;;;6.90;99.90;;;;;;5099105;28;19912;-62
2024/01/31 12:19:18;;;;;;;;;;;6.90;99.90;;;;;;5097782;28;19912;-62
2024/01/31 12:21:44;;;;;;;;;;;7.00;99.90;;;;;;5095152;28;19912;-62
2024/01/31 12:24:09;;;;;;;;;;;7.00;99.90;;;;;;5094254;28;19980;-62
2024/01/31 12:26:35;;;;;;;;;;;7.00;99.90;;;;;;5092011;28;20085;-62
2024/01/31 12:29:00;;;;;;;;;;;7.00;99.90;;;;;;5091467;28;19951;-62
2024/01/31 12:31:26;;;;;;;;;;;7.00;99.90;;;;;;5094711;28;20400;-62
2024/01/31 12:33:51;;;;;;;;;;;7.00;99.90;;;;;;5086948;28;19961;-62
2024/01/31 12:36:17;;;;;;;;;;;7.10;99.90;;;;;;5096650;28;19964;-62
2024/01/31 12:38:43;;;;;;;;;;;7.10;99.90;;;;;;5107239;28;20041;-62
2024/01/31 12:41:08;;;;;;;;;;;7.10;99.90;;;;;;5098462;28;19916;-62
2024/01/31 12:43:34;;;;;;;;;;;7.10;99.90;;;;;;5094980;28;19926;-62
2024/01/31 12:45:59;;;;;;;;;;;7.10;99.90;;;;;;5095043;28;19912;-62
2024/01/31 12:48:25;;;;;;;;;;;7.20;99.90;;;;;;5088010;28;19912;-62
2024/01/31 12:50:51;;;;;;;;;;;7.10;99.90;;;;;;5100406;28;19908;-62
2024/01/31 12:53:16;;;;;;;;;;;7.10;99.90;;;;;;5101571;28;19920;-62
2024/01/31 12:55:42;;;;;;;;;;;7.20;99.90;;;;;;5086816;28;20515;-62
2024/01/31 12:58:08;;;;;;;;;;;7.20;99.90;;;;;;5086475;28;19912;-62
2024/01/31 13:00:33;;;;;;;;;;;7.20;99.90;;;;;;5088539;28;19912;-62
2024/01/31 13:02:59;;;;;;;;;;;7.30;99.90;;;;;;5106483;28;19919;-62
2024/01/31 13:05:25;;;;;;;;;;;7.30;99.90;;;;;;5098274;28;19908;-62
2024/01/31 13:07:50;;;;;;;;;;;7.30;99.90;;;;;;5107082;28;19915;-62
2024/01/31 13:10:16;;;;;;;;;;;7.30;99.90;;;;;;5097869;28;19908;-62
2024/01/31 13:12:41;;;;;;;;;;;7.40;99.90;;;;;;5101643;28;19916;-62
2024/01/31 13:15:07;;;;;;;;;;;7.40;99.90;;;;;;5102879;28;19998;-62
2024/01/31 13:17:33;;;;;;;;;;;7.40;99.90;;;;;;5098474;28;19934;-62
2024/01/31 13:19:58;;;;;;;;;;;7.40;99.90;;;;;;5098285;28;19911;-62
2024/01/31 13:22:24;;;;;;;;;;;7.40;99.90;;;;;;5097317;28;19908;-62
2024/01/31 13:24:49;;;;;;;;;;;7.50;99.90;;;;;;5089044;28;20269;-62
2024/01/31 13:27:15;;;;;;;;;;;7.50;99.90;;;;;;5094155;28;19919;-62
2024/01/31 13:29:40;;;;;;;;;;;7.50;99.90;;;;;;5086508;28;19912;-62
2024/01/31 13:32:06;;;;;;;;;;;7.50;99.90;;;;;;5094129;28;20006;-62
2024/01/31 13:34:33;;;;;;;;;;;7.50;99.90;;;;;;5084506;28;20287;-62
2024/01/31 13:37:00;;;;;;;;;;;7.50;99.90;;;;;;5085806;28;19916;-62
2024/01/31 13:39:26;;;;;;;;;;;7.50;99.90;;;;;;5102817;28;20321;-62
2024/01/31 13:41:52;;;;;;;;;;;7.50;99.90;;;;;;5085903;28;19926;-62
2024/01/31 13:44:17;;;;;;;;;;;7.40;99.90;;;;;;5087498;28;19948;-62
2024/01/31 13:46:43;;;;;;;;;;;7.40;99.90;;;;;;5092855;28;19959;-62
2024/01/31 13:49:08;;;;;;;;;;;7.40;99.90;;;;;;5094414;28;19916;-62
2024/01/31 13:51:35;;;;;;;;;;;7.40;99.90;;;;;;5097717;28;20028;-62
2024/01/31 13:54:01;;;;;;;;;;;7.40;99.90;;;;;;5096346;28;19913;-62
2024/01/31 13:56:26;;;;;;;;;;;7.40;99.90;;;;;;5105359;28;19916;-62
2024/01/31 13:58:52;;;;;;;;;;;7.40;99.90;;;;;;5093783;28;19923;-62
2024/01/31 14:01:17;;;;;;;;;;;7.40;99.90;;;;;;5087456;28;20272;-62
2024/01/31 14:03:43;;;;;;;;;;;7.40;99.90;;;;;;5090956;28;19923;-62
2024/01/31 14:06:09;;;;;;;;;;;7.30;99.90;;;;;;5097665;28;19912;-62
2024/01/31 14:08:34;;;;;;;;;;;7.30;99.90;;;;;;5086969;28;19908;-62
2024/01/31 14:11:00;;;;;;;;;;;7.30;99.90;;;;;;5087628;28;19912;-62
2024/01/31 14:13:25;;;;;;;;;;;7.30;99.90;;;;;;5094471;28;20335;-62
2024/01/31 14:15:51;;;;;;;;;;;7.30;99.90;;;;;;5090726;28;19916;-62
2024/01/31 14:18:16;;;;;;;;;;;7.30;99.90;;;;;;5087649;28;20034;-62
2024/01/31 14:20:42;;;;;;;;;;;7.30;99.90;;;;;;5085297;28;19944;-62
2024/01/31 14:23:07;;;;;;;;;;;7.30;99.90;;;;;;5085592;28;19939;-62
2024/01/31 14:25:33;;;;;;;;;;;7.30;99.90;;;;;;5098046;28;19939;-62